Ocean City, NJ

2:57 AM EDT on October 26, 2014 (GMT -0400)
2nd Street Somers Point | Change Station
CLOSE
Current Station
Personal Weather Station
Location: Somers Point, NJ
Elevation: 33 ft
Nearby Weather Stations

Elev 33 ft 39.32 °N, 74.60 °W | Updated 4 minutes ago

Mostly Cloudy
Mostly Cloudy
56.5 °F
Feels Like 56.5 °F
N
5.0
Wind Variable Wind from SSW
Gusts 8.0 mph

Today
High -- | Low -- °F
--% Chance of Precip.
Yesterday
High -- | Low -- °F
Precip. -- in
7:19 AM 6:04 PM
Waxing Crescent, 6% visible
Pressure 29.61 in
Visibility 10.0 miles
Clouds Few 8000 ft
Dew Point 50 °F
Humidity 79%
Rainfall 0.00 in
Snow Depth Not available.
UV 0 out of 12
Pollen 1.10 out of 12
Air Quality Not available.
Flu Activity Sporadic
METAR KACY 260654Z 25007KT 10SM FEW080 14/08 A2961 RMK AO2 SLP026 T01390083

More Conditions Fewer Conditions

Pressure 29.61 in
Visibility 10.0 miles
Clouds Few 8000 ft
Dew Point 50 °F
Humidity 79%
Rainfall 0.00 in
Snow Depth Not available.
UV 0 out of 12
Pollen 1.10 out of 12
Air Quality Not available.
Flu Activity Sporadic
METAR KACY 260654Z 25007KT 10SM FEW080 14/08 A2961 RMK AO2 SLP026 T01390083

More Conditions Fewer Conditions

10-Day Weather Forecast

Almanac

Astronomy

Oct. 26, 2014 Rise Set
Actual Time 7:19 AM EDT 6:04 PM EDT
Civil Twilight 6:52 AM EDT 6:31 PM EDT
Nautical Twilight 6:20 AM EDT 7:03 PM EDT
Astronomical Twilight 5:49 AM EDT 7:34 PM EDT
Moon 9:54 AM EDT 8:14 PM EDT
Length of Visible Light 11h 39m
Length of Day
10h 44m
Tomorrow will be 2m 21s shorter.
Waxing Crescent, 6% of the Moon is Illuminated
Today
Waxing Crescent
Oct 30
First Quarter
Nov 6
Full
Nov 14
Last Quarter
Nov 22
New

Today's Extremes

State Highs State Lows

Community

WunderPhotos

Upload Photos

1,765,117 photos uploaded!

Nearby

Snow Depth

Station Depth Elevation
No new snow has been reported.

Earthquake Activity

City Distance Mag. Time & Date
No recent earthquake activity has been reported nearby.
Minimum magnitude displayed is 2.5.

Coastal Water Temperatures

Place Temperature
Cape May, NJ 64.0 °F
Lewes, DE 60.1 °F

Nearby Weather Stations